Time;durP1;ratioP1;P1;durP2;ratioP2;P2;SDS_P1;SDS_P2;PMS_P1;PMS_P2;Temp;Humidity;BMP_temperature;BMP_pressure;BME280_temperature;BME280_humidity;BME280_pressure;Samples;Min_cycle;Max_cycle;Signal;HPM_P1;HPM_P2
2023/06/20 00:00:08;;;;;;;;;;;;;;;17.63;99.08;101136.31;107410;1258;110199;-67
2023/06/20 00:02:56;;;;;;;;;;;;;;;17.58;98.84;101139.52;107383;1254;110370;-65
2023/06/20 00:05:25;;;;;;;;;;;;;;;17.55;98.17;101140.35;107435;1260;99268;-66
2023/06/20 00:07:54;;;;;;;;;;;;;;;17.55;98.07;101135.29;107411;1254;99151;-66
2023/06/20 00:10:22;;;;;;;;;;;;;;;17.57;98.35;101129.13;107433;1258;112386;-69
2023/06/20 00:12:50;;;;;;;;;;;;;;;17.54;98.17;101127.06;107423;1254;110774;-66
2023/06/20 00:15:25;;;;;;;;;;;;;;;17.52;97.54;101129.04;107385;1254;107759;-66
2023/06/20 00:17:55;;;;;;;;;;;;;;;17.52;96.77;101132.64;107400;1254;99281;-67
2023/06/20 00:20:23;;;;;;;;;;;;;;;17.53;96.20;101133.70;107437;1259;99176;-66
2023/06/20 00:22:52;;;;;;;;;;;;;;;17.53;95.77;101130.77;107407;1254;113755;-65
2023/06/20 00:25:20;;;;;;;;;;;;;;;17.57;96.01;101128.74;107407;1255;109982;-66
2023/06/20 00:27:48;;;;;;;;;;;;;;;17.61;95.72;101133.40;107418;1254;108724;-68
2023/06/20 00:30:16;;;;;;;;;;;;;;;17.65;95.72;101134.55;107417;1254;99233;-64
2023/06/20 00:32:47;;;;;;;;;;;;;;;17.68;94.87;101139.73;107415;1254;99234;-67
2023/06/20 00:35:18;;;;;;;;;;;;;;;17.70;94.27;101139.73;107416;1255;112516;-66
2023/06/20 00:37:49;;;;;;;;;;;;;;;17.74;94.43;101137.30;107337;1254;110336;-66
2023/06/20 00:40:18;;;;;;;;;;;;;;;17.77;93.66;101141.35;107351;1257;108116;-65
2023/06/20 00:42:46;;;;;;;;;;;;;;;17.76;93.38;101140.70;107381;1258;99134;-66
2023/06/20 00:45:32;;;;;;;;;;;;;;;17.76;92.83;101137.83;107492;1254;99192;-67
2023/06/20 00:48:03;;;;;;;;;;;;;;;17.79;93.09;101137.42;107434;1254;113565;-65
2023/06/20 00:50:32;;;;;;;;;;;;;;;17.79;92.49;101125.36;107446;1253;108032;-66
2023/06/20 00:53:01;;;;;;;;;;;;;;;17.78;92.86;101130.29;107439;1254;107596;-66
2023/06/20 00:55:31;;;;;;;;;;;;;;;17.82;93.35;101128.03;107446;1254;99185;-67
2023/06/20 00:58:00;;;;;;;;;;;;;;;17.87;93.47;101130.13;107304;1259;99131;-66
2023/06/20 01:00:34;;;;;;;;;;;;;;;17.89;93.24;101122.77;107439;1254;112264;-66
2023/06/20 01:03:08;;;;;;;;;;;;;;;17.90;93.00;101108.70;107429;1257;108926;-66
2023/06/20 01:05:37;;;;;;;;;;;;;;;17.92;93.23;101109.89;107440;1257;107661;-66
2023/06/20 01:08:08;;;;;;;;;;;;;;;17.94;92.80;101108.09;107349;1260;99159;-67
2023/06/20 01:10:46;;;;;;;;;;;;;;;17.88;91.47;101107.25;107382;1254;99768;-67
2023/06/20 01:13:20;;;;;;;;;;;;;;;17.79;90.34;101111.00;107381;1258;112539;-65
2023/06/20 01:15:52;;;;;;;;;;;;;;;17.71;90.01;101109.33;107399;1255;109729;-67
2023/06/20 01:18:33;;;;;;;;;;;;;;;17.71;90.85;101102.70;107313;1260;107924;-66
2023/06/20 01:21:07;;;;;;;;;;;;;;;17.70;90.79;101098.76;107374;1255;99240;-66
2023/06/20 01:23:43;;;;;;;;;;;;;;;17.64;90.48;101093.81;107341;1254;99034;-66
2023/06/20 01:26:23;;;;;;;;;;;;;;;17.59;90.33;101095.52;107255;1254;112666;-65
2023/06/20 01:29:10;;;;;;;;;;;;;;;17.49;90.24;101095.89;107333;1254;109517;-67
2023/06/20 01:31:42;;;;;;;;;;;;;;;17.42;90.48;101097.91;107335;1254;109803;-66
2023/06/20 01:34:18;;;;;;;;;;;;;;;17.42;90.89;101103.15;107164;1258;99299;-66
2023/06/20 01:36:57;;;;;;;;;;;;;;;17.44;91.07;101105.15;107398;1257;99061;-65
2023/06/20 01:39:30;;;;;;;;;;;;;;;17.49;91.57;101102.63;107409;1254;112687;-66
2023/06/20 01:42:01;;;;;;;;;;;;;;;17.49;91.31;101104.36;107246;1257;108497;-65
2023/06/20 01:44:31;;;;;;;;;;;;;;;17.45;91.08;101106.77;107294;1254;107241;-67
2023/06/20 01:47:00;;;;;;;;;;;;;;;17.48;91.70;101110.98;107329;1254;99173;-65
2023/06/20 01:49:30;;;;;;;;;;;;;;;17.52;91.87;101111.08;107439;1254;99185;-67
2023/06/20 01:51:59;;;;;;;;;;;;;;;17.56;92.07;101111.20;107434;1254;112355;-65
2023/06/20 01:54:29;;;;;;;;;;;;;;;17.59;91.89;101116.84;107401;1254;108957;-65
2023/06/20 01:56:58;;;;;;;;;;;;;;;17.63;91.97;101124.00;107288;1260;108196;-66
2023/06/20 01:59:26;;;;;;;;;;;;;;;17.66;91.89;101129.27;107252;1254;99276;-68
2023/06/20 02:01:56;;;;;;;;;;;;;;;17.70;91.92;101133.79;107304;1255;99210;-69
2023/06/20 02:04:25;;;;;;;;;;;;;;;17.68;92.61;101140.66;107429;1254;112300;-66
2023/06/20 02:06:55;;;;;;;;;;;;;;;17.67;92.24;101140.11;107440;1254;111166;-67
2023/06/20 02:09:24;;;;;;;;;;;;;;;17.70;92.53;101146.13;107419;1254;107555;-66
2023/06/20 02:11:53;;;;;;;;;;;;;;;17.71;92.08;101146.02;107478;1257;99156;-67
2023/06/20 02:14:21;;;;;;;;;;;;;;;17.72;92.09;101153.70;107456;1254;99145;-65
2023/06/20 02:16:50;;;;;;;;;;;;;;;17.72;92.03;101155.92;107442;1255;112635;-66
2023/06/20 02:19:19;;;;;;;;;;;;;;;17.64;91.60;101153.62;107238;1254;109126;-66
2023/06/20 02:21:47;;;;;;;;;;;;;;;17.63;91.52;101157.44;107383;1254;108237;-66
2023/06/20 02:24:18;;;;;;;;;;;;;;;17.61;91.52;101158.70;107417;1254;99188;-66
2023/06/20 02:26:47;;;;;;;;;;;;;;;17.63;91.83;101161.40;107417;1257;99327;-66
2023/06/20 02:29:18;;;;;;;;;;;;;;;17.65;91.91;101166.41;107272;1254;112663;-66
2023/06/20 02:31:47;;;;;;;;;;;;;;;17.68;92.37;101169.87;107424;1254;109845;-66
2023/06/20 02:34:18;;;;;;;;;;;;;;;17.68;91.94;101170.95;107376;1254;108026;-66
2023/06/20 02:36:47;;;;;;;;;;;;;;;17.65;91.64;101171.54;107416;1254;99211;-66
2023/06/20 02:39:16;;;;;;;;;;;;;;;17.61;91.37;101174.51;107410;1254;99187;-67
2023/06/20 02:41:44;;;;;;;;;;;;;;;17.55;92.04;101171.73;107275;1254;112439;-65
2023/06/20 02:44:12;;;;;;;;;;;;;;;17.47;91.45;101170.45;107284;1255;108508;-65
2023/06/20 02:46:40;;;;;;;;;;;;;;;17.45;91.64;101172.69;107375;1254;107797;-66
2023/06/20 02:49:11;;;;;;;;;;;;;;;17.45;91.77;101177.38;107368;1254;99169;-65
2023/06/20 02:51:46;;;;;;;;;;;;;;;17.47;92.07;101179.90;107385;1254;99047;-65
2023/06/20 02:54:16;;;;;;;;;;;;;;;17.51;92.35;101184.69;107463;1254;112765;-66
2023/06/20 02:56:47;;;;;;;;;;;;;;;17.57;92.35;101189.48;107437;1253;109430;-66
2023/06/20 02:59:16;;;;;;;;;;;;;;;17.61;92.22;101189.39;107407;1254;107833;-69
2023/06/20 03:01:47;;;;;;;;;;;;;;;17.66;92.26;101198.23;107384;1254;99213;-66
2023/06/20 03:04:17;;;;;;;;;;;;;;;17.72;92.35;101204.83;107420;1257;99263;-67
2023/06/20 03:06:46;;;;;;;;;;;;;;;17.76;92.05;101206.92;107424;1254;113505;-67
2023/06/20 03:09:15;;;;;;;;;;;;;;;17.72;91.53;101202.48;107370;1254;110121;-67
2023/06/20 03:11:43;;;;;;;;;;;;;;;17.68;91.25;101201.27;107421;1254;106701;-68
2023/06/20 03:14:12;;;;;;;;;;;;;;;17.65;91.05;101206.09;107307;1254;99191;-66
2023/06/20 03:16:42;;;;;;;;;;;;;;;17.63;91.27;101208.04;107401;1254;99100;-68
2023/06/20 03:19:10;;;;;;;;;;;;;;;17.61;91.13;101211.33;107418;1254;113397;-67
2023/06/20 03:21:39;;;;;;;;;;;;;;;17.65;91.86;101212.17;107378;1254;110473;-68
2023/06/20 03:24:08;;;;;;;;;;;;;;;17.71;91.90;101214.35;107384;1254;107818;-65
2023/06/20 03:26:38;;;;;;;;;;;;;;;17.77;92.11;101213.32;107391;1254;99282;-66
2023/06/20 03:29:06;;;;;;;;;;;;;;;17.84;91.85;101210.23;107363;1254;99058;-66
2023/06/20 03:31:35;;;;;;;;;;;;;;;17.88;91.51;101213.09;107389;1254;113921;-67
2023/06/20 03:34:03;;;;;;;;;;;;;;;17.91;91.48;101212.50;107374;1254;109673;-66
2023/06/20 03:36:32;;;;;;;;;;;;;;;17.93;90.88;101209.61;107418;1254;107048;-67
2023/06/20 03:39:00;;;;;;;;;;;;;;;17.94;91.13;101203.85;107471;1254;99167;-66
2023/06/20 03:41:29;;;;;;;;;;;;;;;17.91;90.44;101202.70;107440;1254;99184;-67
2023/06/20 03:44:01;;;;;;;;;;;;;;;17.76;90.26;101201.28;107399;1257;113576;-66
2023/06/20 03:46:29;;;;;;;;;;;;;;;17.66;90.64;101198.44;107360;1254;109737;-66
2023/06/20 03:48:58;;;;;;;;;;;;;;;17.59;91.11;101201.03;107453;1254;108286;-67
2023/06/20 03:51:26;;;;;;;;;;;;;;;17.56;91.75;101201.41;107388;1254;99182;-68
2023/06/20 03:53:55;;;;;;;;;;;;;;;17.54;91.60;101200.29;107410;1254;99179;-68
2023/06/20 03:56:24;;;;;;;;;;;;;;;17.60;92.06;101199.13;107387;1253;114499;-68
2023/06/20 03:58:52;;;;;;;;;;;;;;;17.66;92.00;101194.45;107207;1254;108754;-68
2023/06/20 04:01:24;;;;;;;;;;;;;;;17.74;92.25;101196.66;107235;1259;108392;-70
2023/06/20 04:03:54;;;;;;;;;;;;;;;17.79;92.11;101201.89;107359;1257;99201;-69
2023/06/20 04:06:29;;;;;;;;;;;;;;;17.81;92.00;101206.36;107401;1255;99234;-66
2023/06/20 04:08:59;;;;;;;;;;;;;;;17.89;91.99;101210.37;107380;1257;113128;-65
2023/06/20 04:11:27;;;;;;;;;;;;;;;17.95;91.64;101215.33;107348;1254;108791;-68
2023/06/20 04:13:55;;;;;;;;;;;;;;;18.04;91.71;101218.32;107349;1254;107669;-68
2023/06/20 04:16:23;;;;;;;;;;;;;;;18.12;91.42;101222.27;107226;1254;99188;-67
2023/06/20 04:18:51;;;;;;;;;;;;;;;18.17;91.15;101220.83;107415;1254;99161;-67
2023/06/20 04:21:23;;;;;;;;;;;;;;;18.21;90.87;101219.17;107393;1254;113221;-67
2023/06/20 04:23:52;;;;;;;;;;;;;;;18.25;90.70;101220.20;107095;1254;109323;-66
2023/06/20 04:26:20;;;;;;;;;;;;;;;18.32;90.48;101223.33;107239;1254;108177;-67
2023/06/20 04:28:49;;;;;;;;;;;;;;;18.35;89.80;101223.48;107310;1254;99214;-66
2023/06/20 04:31:17;;;;;;;;;;;;;;;18.37;89.68;101221.46;107357;1254;99298;-67
2023/06/20 04:33:45;;;;;;;;;;;;;;;18.45;89.62;101222.35;107364;1257;113543;-65
2023/06/20 04:36:13;;;;;;;;;;;;;;;18.50;89.26;101221.35;107342;1254;108981;-67
2023/06/20 04:38:44;;;;;;;;;;;;;;;18.43;88.80;101224.04;107461;1254;108113;-65
2023/06/20 04:41:13;;;;;;;;;;;;;;;18.41;89.01;101229.80;107344;1254;99292;-67
2023/06/20 04:43:44;;;;;;;;;;;;;;;18.44;89.21;101222.87;107342;1254;99204;-64
2023/06/20 04:46:13;;;;;;;;;;;;;;;18.57;89.27;101220.28;107191;1256;113053;-68
2023/06/20 04:48:42;;;;;;;;;;;;;;;18.64;88.88;101222.59;107260;1257;109553;-66
2023/06/20 04:51:11;;;;;;;;;;;;;;;18.72;88.80;101224.98;107188;1254;108289;-66
2023/06/20 04:53:39;;;;;;;;;;;;;;;18.85;88.38;101226.30;107293;1254;99179;-66
2023/06/20 04:56:08;;;;;;;;;;;;;;;18.93;87.90;101224.46;107341;1254;99192;-66
2023/06/20 04:58:36;;;;;;;;;;;;;;;18.95;87.53;101226.98;107279;1254;113224;-67
2023/06/20 05:01:05;;;;;;;;;;;;;;;18.96;87.01;101231.34;107337;1254;109279;-67
2023/06/20 05:03:33;;;;;;;;;;;;;;;18.97;87.23;101232.98;107361;1254;108190;-67
2023/06/20 05:06:01;;;;;;;;;;;;;;;18.96;86.86;101235.12;107384;1254;99189;-67
2023/06/20 05:08:31;;;;;;;;;;;;;;;18.90;86.77;101235.12;107232;1259;99143;-67
2023/06/20 05:11:00;;;;;;;;;;;;;;;18.89;86.82;101234.55;107397;1254;112503;-67
2023/06/20 05:13:28;;;;;;;;;;;;;;;18.98;87.05;101235.02;107418;1254;110460;-69
2023/06/20 05:15:56;;;;;;;;;;;;;;;19.09;87.26;101237.89;107381;1254;109752;-68
2023/06/20 05:18:24;;;;;;;;;;;;;;;19.16;86.31;101236.34;107409;1254;99123;-68
2023/06/20 05:20:55;;;;;;;;;;;;;;;19.23;85.48;101238.48;107277;1254;99169;-66
2023/06/20 05:23:25;;;;;;;;;;;;;;;19.29;84.73;101246.14;107440;1254;113043;-68
2023/06/20 05:25:53;;;;;;;;;;;;;;;19.35;84.18;101248.27;107418;1253;109130;-67
2023/06/20 05:28:21;;;;;;;;;;;;;;;19.46;83.81;101242.65;107427;1254;108195;-71
2023/06/20 05:30:49;;;;;;;;;;;;;;;19.57;83.82;101243.13;107373;1257;99046;-68
2023/06/20 05:33:18;;;;;;;;;;;;;;;19.67;83.26;101244.84;107434;1254;99204;-68
2023/06/20 05:35:46;;;;;;;;;;;;;;;19.81;83.57;101247.39;107419;1254;112853;-67
2023/06/20 05:38:15;;;;;;;;;;;;;;;19.98;83.56;101244.44;107381;1253;109885;-68
2023/06/20 05:40:44;;;;;;;;;;;;;;;20.13;82.63;101248.89;107377;1254;109498;-69
2023/06/20 05:43:12;;;;;;;;;;;;;;;20.16;80.40;101250.50;107368;1254;99188;-68
2023/06/20 05:45:40;;;;;;;;;;;;;;;20.15;80.06;101248.73;107392;1254;98426;-67
2023/06/20 05:48:11;;;;;;;;;;;;;;;20.17;79.26;101252.19;107352;1254;113545;-67
2023/06/20 05:50:40;;;;;;;;;;;;;;;20.20;78.50;101254.75;107412;1257;108485;-66
2023/06/20 05:53:08;;;;;;;;;;;;;;;20.23;77.07;101259.29;107317;1254;108636;-70
2023/06/20 05:55:36;;;;;;;;;;;;;;;20.38;77.84;101255.45;107341;1254;99974;-67
2023/06/20 05:58:04;;;;;;;;;;;;;;;20.52;76.93;101255.19;107338;1258;99185;-65
2023/06/20 06:00:33;;;;;;;;;;;;;;;20.57;76.82;101256.52;107393;1254;112680;-66
2023/06/20 06:03:01;;;;;;;;;;;;;;;20.69;77.02;101260.23;107368;1254;109149;-67
2023/06/20 06:05:29;;;;;;;;;;;;;;;20.78;77.03;101261.80;107360;1254;107237;-67
2023/06/20 06:07:58;;;;;;;;;;;;;;;20.83;76.34;101261.98;107398;1254;99067;-67
2023/06/20 06:10:26;;;;;;;;;;;;;;;20.84;75.42;101263.34;107406;1254;99178;-67
2023/06/20 06:12:54;;;;;;;;;;;;;;;20.83;73.95;101266.57;107367;1254;113488;-68
2023/06/20 06:15:25;;;;;;;;;;;;;;;20.71;72.68;101267.75;107377;1254;108463;-67
2023/06/20 06:17:56;;;;;;;;;;;;;;;20.71;73.76;101270.01;107379;1254;107425;-67
2023/06/20 06:20:25;;;;;;;;;;;;;;;20.70;72.57;101271.36;107379;1254;99211;-67
2023/06/20 06:22:54;;;;;;;;;;;;;;;20.70;72.53;101267.05;107436;1257;99342;-68
2023/06/20 06:25:23;;;;;;;;;;;;;;;20.61;71.12;101271.00;107395;1254;112328;-67
2023/06/20 06:27:52;;;;;;;;;;;;;;;20.53;71.34;101267.14;107296;1258;109465;-67
2023/06/20 06:30:23;;;;;;;;;;;;;;;20.48;71.83;101267.30;107394;1254;107697;-66
2023/06/20 06:32:52;;;;;;;;;;;;;;;20.47;72.14;101266.92;107396;1253;99864;-68
2023/06/20 06:35:21;;;;;;;;;;;;;;;20.53;72.78;101264.61;107359;1257;99170;-67
2023/06/20 06:37:49;;;;;;;;;;;;;;;20.57;72.69;101262.27;107333;1254;112719;-67
2023/06/20 06:40:20;;;;;;;;;;;;;;;20.67;73.37;101261.73;107360;1254;109395;-67
2023/06/20 06:42:48;;;;;;;;;;;;;;;20.80;73.69;101258.08;107412;1254;108830;-67
2023/06/20 06:45:16;;;;;;;;;;;;;;;20.95;73.83;101254.60;107263;1254;99317;-66
2023/06/20 06:47:44;;;;;;;;;;;;;;;21.12;73.13;101256.34;107480;1254;99177;-69
2023/06/20 06:50:13;;;;;;;;;;;;;;;21.20;71.36;101259.27;107438;1254;112444;-67
2023/06/20 06:52:41;;;;;;;;;;;;;;;21.26;71.36;101259.67;107400;1254;110162;-69
2023/06/20 06:55:09;;;;;;;;;;;;;;;21.35;71.43;101257.07;107362;1254;108066;-69
2023/06/20 06:57:40;;;;;;;;;;;;;;;21.47;71.64;101257.96;107407;1254;97812;-68
2023/06/20 07:00:12;;;;;;;;;;;;;;;21.60;71.52;101255.41;107339;1254;99173;-67
2023/06/20 07:02:42;;;;;;;;;;;;;;;21.60;69.80;101256.70;107386;1254;113068;-70
2023/06/20 07:05:14;;;;;;;;;;;;;;;21.64;70.56;101256.68;107401;1254;110328;-68
2023/06/20 07:07:42;;;;;;;;;;;;;;;21.79;71.23;101258.39;107378;1254;108753;-67
2023/06/20 07:10:14;;;;;;;;;;;;;;;21.99;71.00;101260.44;107363;1257;99275;-67
2023/06/20 07:12:42;;;;;;;;;;;;;;;22.20;70.72;101260.64;107412;1254;99064;-68
2023/06/20 07:15:10;;;;;;;;;;;;;;;22.38;70.36;101255.91;107438;1254;113038;-67
2023/06/20 07:17:38;;;;;;;;;;;;;;;22.53;69.53;101254.15;107423;1254;110869;-67
2023/06/20 07:20:09;;;;;;;;;;;;;;;22.69;69.64;101257.92;107426;1254;109014;-69
2023/06/20 07:22:37;;;;;;;;;;;;;;;22.80;67.90;101254.46;107404;1254;99176;-68
2023/06/20 07:25:07;;;;;;;;;;;;;;;22.83;67.92;101252.37;107369;1254;99285;-68
2023/06/20 07:27:35;;;;;;;;;;;;;;;22.88;66.17;101244.95;107372;1254;113074;-67
2023/06/20 07:30:04;;;;;;;;;;;;;;;22.89;66.15;101242.30;107372;1254;109810;-69
2023/06/20 07:32:32;;;;;;;;;;;;;;;22.97;66.82;101238.65;107264;1254;107612;-67
2023/06/20 07:35:01;;;;;;;;;;;;;;;23.09;66.94;101242.17;107339;1254;99195;-67
2023/06/20 07:37:29;;;;;;;;;;;;;;;23.20;66.95;101245.12;107531;1253;99166;-67
2023/06/20 07:40:00;;;;;;;;;;;;;;;23.20;65.24;101247.29;107520;1254;113416;-68
2023/06/20 07:42:29;;;;;;;;;;;;;;;23.17;64.88;101249.75;107427;1254;110012;-69
2023/06/20 07:44:58;;;;;;;;;;;;;;;23.22;65.26;101242.77;107398;1254;108091;-67
2023/06/20 07:47:26;;;;;;;;;;;;;;;23.43;65.11;101246.04;107425;1253;99166;-70
2023/06/20 07:49:55;;;;;;;;;;;;;;;23.57;63.96;101244.28;107541;1254;99168;-68
2023/06/20 07:52:23;;;;;;;;;;;;;;;23.74;64.37;101241.00;107414;1254;113559;-69
2023/06/20 07:54:51;;;;;;;;;;;;;;;24.00;64.95;101241.21;107377;1254;109430;-68
2023/06/20 07:57:20;;;;;;;;;;;;;;;24.27;64.45;101242.76;107401;1254;108289;-68
2023/06/20 07:59:50;;;;;;;;;;;;;;;24.50;63.57;101241.45;107395;1254;99883;-67
2023/06/20 08:02:19;;;;;;;;;;;;;;;24.69;61.81;101246.67;106403;1254;1263083;-67
2023/06/20 08:04:47;;;;;;;;;;;;;;;24.77;59.51;101253.55;107352;1254;113471;-69
2023/06/20 08:07:15;;;;;;;;;;;;;;;24.70;58.39;101252.56;107374;1253;109355;-67
2023/06/20 08:09:44;;;;;;;;;;;;;;;24.59;57.76;101255.46;107386;1257;107928;-67
2023/06/20 08:12:12;;;;;;;;;;;;;;;24.56;58.25;101251.23;107393;1254;99060;-67
2023/06/20 08:14:40;;;;;;;;;;;;;;;24.73;59.10;101250.05;107447;1254;99208;-66
2023/06/20 08:17:08;;;;;;;;;;;;;;;24.82;58.23;101253.02;107449;1254;113432;-70
2023/06/20 08:19:37;;;;;;;;;;;;;;;24.86;58.60;101252.57;107412;1254;109728;-70
2023/06/20 08:22:05;;;;;;;;;;;;;;;24.91;58.38;101250.48;107383;1254;108001;-70
2023/06/20 08:24:34;;;;;;;;;;;;;;;24.98;58.05;101250.47;107389;1254;99178;-68
2023/06/20 08:27:04;;;;;;;;;;;;;;;24.97;58.49;101247.39;107405;1254;99025;-68
2023/06/20 08:29:33;;;;;;;;;;;;;;;25.04;58.36;101249.89;107479;1254;112111;-69
2023/06/20 08:32:01;;;;;;;;;;;;;;;25.11;58.30;101245.56;107438;1254;110130;-68
2023/06/20 08:34:29;;;;;;;;;;;;;;;25.19;58.05;101239.66;107404;1254;108499;-69
2023/06/20 08:36:57;;;;;;;;;;;;;;;25.30;58.58;101239.00;107392;1254;99214;-69
2023/06/20 08:39:26;;;;;;;;;;;;;;;25.51;58.97;101244.91;107416;1254;99271;-68
2023/06/20 08:41:54;;;;;;;;;;;;;;;25.79;58.39;101245.97;107407;1257;113635;-70
2023/06/20 08:44:23;;;;;;;;;;;;;;;26.02;58.00;101246.09;107393;1254;109014;-69
2023/06/20 08:46:57;;;;;;;;;;;;;;;26.08;56.35;101246.13;107363;1254;108287;-71
2023/06/20 08:49:25;;;;;;;;;;;;;;;26.06;55.33;101250.64;107366;1254;99200;-72
2023/06/20 08:51:57;;;;;;;;;;;;;;;25.92;54.68;101250.13;107418;1254;99057;-69
2023/06/20 08:54:25;;;;;;;;;;;;;;;25.82;55.31;101247.73;107475;1253;112038;-69
2023/06/20 08:56:53;;;;;;;;;;;;;;;25.85;56.37;101240.25;107378;1254;110875;-72
2023/06/20 08:59:22;;;;;;;;;;;;;;;26.10;55.98;101244.80;107378;1254;108602;-69
2023/06/20 09:01:50;;;;;;;;;;;;;;;26.18;54.67;101251.52;107353;1253;99164;-69
2023/06/20 09:04:19;;;;;;;;;;;;;;;26.12;54.55;101250.27;107398;1254;99234;-68
2023/06/20 09:06:50;;;;;;;;;;;;;;;26.03;54.47;101248.54;107416;1253;113341;-69
2023/06/20 09:09:19;;;;;;;;;;;;;;;26.05;54.92;101243.20;107387;1254;109103;-69
2023/06/20 09:11:49;;;;;;;;;;;;;;;26.35;55.56;101239.49;107374;1257;108017;-68
2023/06/20 09:14:18;;;;;;;;;;;;;;;26.54;54.97;101236.95;107285;1254;99196;-67
2023/06/20 09:16:47;;;;;;;;;;;;;;;26.66;54.72;101236.73;107308;1254;99211;-71
2023/06/20 09:19:15;;;;;;;;;;;;;;;26.70;54.47;101241.42;107332;1253;113086;-68
2023/06/20 09:21:44;;;;;;;;;;;;;;;26.63;53.18;101237.58;107353;1254;108847;-70
2023/06/20 09:24:15;;;;;;;;;;;;;;;26.62;52.94;101236.73;107314;1257;108373;-68
2023/06/20 09:26:44;;;;;;;;;;;;;;;26.59;52.54;101232.90;107254;1258;99027;-67
2023/06/20 09:29:17;;;;;;;;;;;;;;;26.62;53.16;101234.58;107372;1254;99154;-68
2023/06/20 09:31:49;;;;;;;;;;;;;;;26.80;53.72;101231.63;107353;1254;113145;-67
2023/06/20 09:34:18;;;;;;;;;;;;;;;27.11;53.69;101232.63;107361;1254;109576;-68
2023/06/20 09:36:47;;;;;;;;;;;;;;;27.40;53.41;101226.08;107292;1254;108677;-68
2023/06/20 09:39:17;;;;;;;;;;;;;;;27.72;52.86;101222.56;107347;1253;99216;-68
2023/06/20 09:41:47;;;;;;;;;;;;;;;28.00;52.35;101220.52;107378;1253;99285;-66
2023/06/20 09:44:16;;;;;;;;;;;;;;;28.24;51.45;101218.88;107403;1254;112942;-66
2023/06/20 09:46:44;;;;;;;;;;;;;;;28.41;49.78;101220.73;107384;1253;109937;-66
2023/06/20 09:49:13;;;;;;;;;;;;;;;28.26;47.66;101222.24;107502;1253;110234;-67
2023/06/20 09:51:47;;;;;;;;;;;;;;;28.26;49.48;101217.48;107408;1254;99273;-67
2023/06/20 09:54:34;;;;;;;;;;;;;;;28.60;48.58;101216.90;107335;1254;99054;-68
2023/06/20 09:57:05;;;;;;;;;;;;;;;29.01;48.43;101212.59;107338;1254;113708;-67
2023/06/20 09:59:34;;;;;;;;;;;;;;;29.39;47.82;101210.33;107340;1254;111095;-72
2023/06/20 10:02:07;;;;;;;;;;;;;;;29.66;46.05;101210.48;107329;1254;108160;-66
2023/06/20 10:04:42;;;;;;;;;;;;;;;29.85;45.62;101209.60;107332;1254;99165;-67
2023/06/20 10:07:14;;;;;;;;;;;;;;;30.05;44.92;101211.35;107372;1254;99057;-67
2023/06/20 10:09:43;;;;;;;;;;;;;;;30.32;45.30;101211.69;107360;1256;112875;-66
2023/06/20 10:12:11;;;;;;;;;;;;;;;30.71;44.40;101212.60;107284;1257;109561;-67
2023/06/20 10:14:40;;;;;;;;;;;;;;;30.94;43.24;101217.95;107328;1254;108821;-67
2023/06/20 10:17:09;;;;;;;;;;;;;;;31.19;43.77;101218.42;107298;1254;99297;-67
2023/06/20 10:19:47;;;;;;;;;;;;;;;31.33;41.61;101217.98;107309;1253;99175;-66
2023/06/20 10:22:35;;;;;;;;;;;;;;;31.63;42.68;101216.22;107365;1253;113653;-66
2023/06/20 10:25:11;;;;;;;;;;;;;;;32.24;41.79;101211.74;107408;1257;108647;-66
2023/06/20 10:27:43;;;;;;;;;;;;;;;32.90;41.02;101211.69;107346;1254;109245;-67
2023/06/20 10:30:15;;;;;;;;;;;;;;;33.57;41.31;101206.02;107333;1257;99157;-67
2023/06/20 10:33:03;;;;;;;;;;;;;;;34.06;39.12;101206.50;107359;1254;99023;-67
2023/06/20 10:35:31;;;;;;;;;;;;;;;34.23;37.06;101209.90;107383;1254;113234;-66
2023/06/20 10:38:09;;;;;;;;;;;;;;;34.38;35.72;101201.08;107348;1253;109629;-66
2023/06/20 10:40:37;;;;;;;;;;;;;;;34.56;36.35;101198.64;107310;1254;107636;-67
2023/06/20 10:43:14;;;;;;;;;;;;;;;34.79;36.15;101197.61;107373;1253;99159;-67
2023/06/20 10:46:01;;;;;;;;;;;;;;;34.87;34.37;101193.41;107402;1254;99052;-65
2023/06/20 10:48:30;;;;;;;;;;;;;;;35.17;34.44;101196.16;107464;1254;112304;-65
2023/06/20 10:50:59;;;;;;;;;;;;;;;35.63;35.52;101194.85;107516;1254;109196;-66
2023/06/20 10:53:28;;;;;;;;;;;;;;;35.99;34.00;101192.56;107297;1254;107722;-65
2023/06/20 10:55:57;;;;;;;;;;;;;;;35.42;33.42;101190.06;107285;1254;99146;-66
2023/06/20 10:58:25;;;;;;;;;;;;;;;34.60;33.80;101189.66;107345;1253;99300;-65
2023/06/20 11:01:00;;;;;;;;;;;;;;;33.62;34.53;101186.83;107308;1257;113578;-69
2023/06/20 11:03:29;;;;;;;;;;;;;;;33.18;35.88;101179.00;107355;1254;109376;-66
2023/06/20 11:05:58;;;;;;;;;;;;;;;33.56;36.09;101176.08;107346;1254;108233;-66
2023/06/20 11:08:28;;;;;;;;;;;;;;;34.24;36.72;101174.83;107242;1254;99235;-68
2023/06/20 11:10:57;;;;;;;;;;;;;;;34.80;34.87;101174.52;107285;1254;99169;-67
2023/06/20 11:13:25;;;;;;;;;;;;;;;35.49;35.22;101174.30;107201;1254;114280;-68
2023/06/20 11:15:54;;;;;;;;;;;;;;;36.10;33.48;101177.43;107299;1257;109657;-69
2023/06/20 11:18:25;;;;;;;;;;;;;;;35.86;32.80;101176.03;107320;1254;108863;-71
2023/06/20 11:20:56;;;;;;;;;;;;;;;35.10;33.23;101183.68;107225;1253;99377;-67
2023/06/20 11:23:35;;;;;;;;;;;;;;;34.83;33.84;101180.23;107308;1257;99179;-68
2023/06/20 11:26:04;;;;;;;;;;;;;;;35.54;32.88;101175.73;107308;1254;112356;-69
2023/06/20 11:28:32;;;;;;;;;;;;;;;36.07;32.08;101166.33;107304;1254;109280;-68
2023/06/20 11:31:07;;;;;;;;;;;;;;;36.55;32.26;101159.58;107248;1254;108335;-67
2023/06/20 11:33:35;;;;;;;;;;;;;;;37.23;30.87;101158.55;107196;1254;99065;-72
2023/06/20 11:36:04;;;;;;;;;;;;;;;37.72;29.63;101159.70;107228;1254;99793;-70
2023/06/20 11:38:35;;;;;;;;;;;;;;;38.17;29.55;101154.33;107307;1254;113182;-68
2023/06/20 11:41:06;;;;;;;;;;;;;;;38.53;28.19;101152.69;107291;1254;109317;-70
2023/06/20 11:43:38;;;;;;;;;;;;;;;38.76;28.92;101151.02;107267;1254;106615;-67
2023/06/20 11:46:07;;;;;;;;;;;;;;;39.17;27.06;101148.15;107345;1253;99116;-65
2023/06/20 11:48:35;;;;;;;;;;;;;;;39.32;27.79;101150.58;107298;1254;99154;-70
2023/06/20 11:51:05;;;;;;;;;;;;;;;39.63;27.37;101147.33;107314;1257;112673;-69
2023/06/20 11:53:36;;;;;;;;;;;;;;;39.43;26.55;101147.23;107334;1254;109714;-71
2023/06/20 11:56:06;;;;;;;;;;;;;;;39.45;26.55;101143.80;107329;1254;107700;-67
2023/06/20 11:58:39;;;;;;;;;;;;;;;39.36;27.03;101145.64;107320;1257;99169;-68
2023/06/20 12:01:14;;;;;;;;;;;;;;;39.51;26.81;101144.70;107400;1254;99044;-69
2023/06/20 12:03:44;;;;;;;;;;;;;;;39.74;26.69;101146.03;107318;1257;113217;-69
2023/06/20 12:06:31;;;;;;;;;;;;;;;40.15;26.60;101147.69;107300;1253;109172;-69
2023/06/20 12:09:03;;;;;;;;;;;;;;;40.30;26.97;101151.10;107301;1257;108342;-68
2023/06/20 12:11:31;;;;;;;;;;;;;;;40.04;25.73;101147.55;107346;1253;99163;-71
2023/06/20 12:14:02;;;;;;;;;;;;;;;40.03;25.58;101142.72;107151;1254;99420;-67
2023/06/20 12:16:31;;;;;;;;;;;;;;;39.29;26.89;101143.73;107319;1257;113288;-71
2023/06/20 12:19:00;;;;;;;;;;;;;;;38.46;27.63;101141.92;107364;1254;109687;-69
2023/06/20 12:21:28;;;;;;;;;;;;;;;37.95;27.97;101134.41;107307;1254;108556;-71
2023/06/20 12:23:56;;;;;;;;;;;;;;;38.24;27.69;101134.40;107315;1254;99161;-68
2023/06/20 12:26:25;;;;;;;;;;;;;;;38.44;28.25;101135.02;107356;1254;99529;-68
2023/06/20 12:28:53;;;;;;;;;;;;;;;39.25;27.77;101133.91;107422;1253;112627;-68
2023/06/20 12:31:21;;;;;;;;;;;;;;;39.63;26.34;101131.65;107269;1254;110252;-69
2023/06/20 12:33:51;;;;;;;;;;;;;;;39.24;25.67;101133.52;107296;1254;107787;-69